createdAt,value
2022-12-03T00:03:49.025Z,73.33
2022-12-03T00:08:51.405Z,73.59
2022-12-03T00:13:53.598Z,73.45
2022-12-03T00:18:55.744Z,73.48
2022-12-03T00:23:58.038Z,73.70
2022-12-03T00:29:00.236Z,73.33
2022-12-03T00:34:02.470Z,73.40
2022-12-03T00:39:04.618Z,73.38
2022-12-03T00:44:07.001Z,73.57
2022-12-03T00:49:09.249Z,73.30
2022-12-03T00:54:11.503Z,73.50
2022-12-03T00:59:13.610Z,73.36
2022-12-03T01:04:16.022Z,73.38
2022-12-03T01:09:18.254Z,73.45
2022-12-03T01:14:20.847Z,73.15
2022-12-03T01:19:23.060Z,73.04
2022-12-03T01:24:25.398Z,73.21
2022-12-03T01:29:27.638Z,72.85
2022-12-03T01:34:29.978Z,73.09
2022-12-03T01:39:32.092Z,73.08
2022-12-03T01:44:35.903Z,73.17
2022-12-03T01:49:45.059Z,73.15
2022-12-03T01:55:11.018Z,72.93
2022-12-03T02:00:22.087Z,73.20
2022-12-03T02:05:27.398Z,73.17
2022-12-03T02:10:38.933Z,72.94
2022-12-03T02:15:41.311Z,73.09
2022-12-03T02:21:10.425Z,73.19
2022-12-03T02:26:12.649Z,73.26
2022-12-03T02:31:14.941Z,73.10
2022-12-03T02:36:17.204Z,73.07
2022-12-03T02:41:39.897Z,72.56
2022-12-03T02:46:42.197Z,72.87
2022-12-03T02:51:44.442Z,73.00
2022-12-03T02:56:46.597Z,73.16
2022-12-03T03:01:49.649Z,72.95
2022-12-03T03:06:52.432Z,73.17
2022-12-03T03:11:54.666Z,73.21
2022-12-03T03:16:57.100Z,72.96
2022-12-03T03:21:59.443Z,73.00
2022-12-03T03:27:01.818Z,72.94
2022-12-03T03:32:04.804Z,72.86
2022-12-03T03:37:07.126Z,72.75
2022-12-03T03:42:09.858Z,72.97
2022-12-03T03:47:12.852Z,73.07
2022-12-03T03:52:15.076Z,72.87
2022-12-03T03:57:17.571Z,72.92
2022-12-03T04:02:21.393Z,72.62
2022-12-03T04:07:23.604Z,73.09
2022-12-03T04:12:44.391Z,72.96
2022-12-03T04:18:06.574Z,73.03
2022-12-03T04:23:08.923Z,73.09
2022-12-03T04:28:29.546Z,72.94
2022-12-03T04:33:52.606Z,73.06
2022-12-03T04:38:54.803Z,72.84
2022-12-03T04:44:17.930Z,72.87
2022-12-03T04:49:20.403Z,73.10
2022-12-03T04:54:22.654Z,73.23
2022-12-03T04:59:25.063Z,72.84
2022-12-03T05:04:27.485Z,72.74
2022-12-03T05:09:29.784Z,72.60
2022-12-03T05:14:31.951Z,72.64
2022-12-03T05:19:52.614Z,72.56
2022-12-03T05:24:55.094Z,72.78
2022-12-03T05:29:57.522Z,72.74
2022-12-03T05:34:59.667Z,72.72
2022-12-03T05:40:02.099Z,72.49
2022-12-03T05:45:05.852Z,72.80
2022-12-03T05:50:08.525Z,72.80
2022-12-03T05:55:12.094Z,72.65
2022-12-03T06:00:42.321Z,72.72
2022-12-03T06:05:45.221Z,72.60
2022-12-03T06:10:47.737Z,72.58
2022-12-03T06:15:51.561Z,72.63
2022-12-03T06:20:53.926Z,72.52
2022-12-03T06:25:56.123Z,72.34
2022-12-03T06:30:58.458Z,72.51
2022-12-03T06:36:00.708Z,72.35
2022-12-03T06:41:02.890Z,72.45
2022-12-03T06:46:05.386Z,72.74
2022-12-03T06:51:07.595Z,72.69
2022-12-03T06:56:10.249Z,72.54
2022-12-03T07:01:12.532Z,72.52
2022-12-03T07:06:14.823Z,72.67
2022-12-03T07:11:31.919Z,72.59
2022-12-03T07:16:35.977Z,72.94
2022-12-03T07:21:38.466Z,72.59
2022-12-03T07:26:40.729Z,72.73
2022-12-03T07:31:42.953Z,72.48
2022-12-03T07:36:45.236Z,72.48
2022-12-03T07:41:47.456Z,72.80
2022-12-03T07:46:49.846Z,72.59
2022-12-03T07:51:57.865Z,72.51
2022-12-03T07:57:01.822Z,72.28
2022-12-03T08:02:04.602Z,72.55
2022-12-03T08:07:06.830Z,72.66
2022-12-03T08:12:22.463Z,72.69
2022-12-03T08:17:25.016Z,72.49
2022-12-03T08:22:27.285Z,72.38
2022-12-03T08:27:33.697Z,72.78
2022-12-03T08:32:36.309Z,72.74
2022-12-03T08:37:38.688Z,72.67
2022-12-03T08:42:43.755Z,72.91
2022-12-03T08:47:46.051Z,72.84
2022-12-03T08:52:48.299Z,73.12
2022-12-03T08:57:50.859Z,73.38
2022-12-03T09:02:55.131Z,73.15
2022-12-03T09:07:57.510Z,73.28
2022-12-03T09:12:59.740Z,73.03
2022-12-03T09:18:02.048Z,73.40
2022-12-03T09:23:04.220Z,73.53
2022-12-03T09:28:06.428Z,73.48
2022-12-03T09:33:08.833Z,73.31
2022-12-03T09:38:11.360Z,73.70
2022-12-03T09:43:16.066Z,73.65
2022-12-03T09:48:21.488Z,73.82
2022-12-03T09:53:26.187Z,73.65
2022-12-03T09:58:34.299Z,73.86
2022-12-03T10:03:48.560Z,73.94
2022-12-03T10:08:54.617Z,73.73
2022-12-03T10:14:00.668Z,73.92
2022-12-03T10:19:05.135Z,73.88
2022-12-03T10:24:18.993Z,74.10
2022-12-03T10:29:26.976Z,74.13
2022-12-03T10:34:40.367Z,74.41
2022-12-03T10:40:02.202Z,74.60
2022-12-03T10:45:15.145Z,74.44
2022-12-03T10:50:19.321Z,74.57
2022-12-03T10:55:21.784Z,74.49
2022-12-03T11:00:24.157Z,74.77
2022-12-03T11:05:27.739Z,74.62
2022-12-03T11:10:30.238Z,74.62
2022-12-03T11:15:44.451Z,75.11
2022-12-03T11:21:11.628Z,75.40
2022-12-03T11:26:18.949Z,75.13
2022-12-03T11:31:45.195Z,75.47
2022-12-03T11:37:13.128Z,75.41
2022-12-03T11:42:27.798Z,75.33
2022-12-03T11:47:42.549Z,75.34
2022-12-03T11:52:48.169Z,75.30
2022-12-03T11:57:58.632Z,75.62
2022-12-03T12:03:00.928Z,75.17
2022-12-03T12:08:03.763Z,75.46
2022-12-03T12:13:06.458Z,75.44
2022-12-03T12:18:55.395Z,75.93
2022-12-03T12:24:33.231Z,76.18
2022-12-03T12:29:36.954Z,75.72
2022-12-03T12:34:47.584Z,75.81
2022-12-03T12:39:53.794Z,76.13
2022-12-03T12:45:05.769Z,76.16
2022-12-03T12:50:11.801Z,76.14
2022-12-03T12:55:15.071Z,75.82
2022-12-03T13:00:20.364Z,76.12
2022-12-03T13:05:23.574Z,76.31
2022-12-03T13:10:39.628Z,76.69
2022-12-03T13:16:00.305Z,76.58
2022-12-03T13:21:15.790Z,77.07
2022-12-03T13:26:38.069Z,76.77
2022-12-03T13:31:51.803Z,76.58
2022-12-03T13:36:58.030Z,76.81
2022-12-03T13:42:34.405Z,77.00
2022-12-03T13:47:38.147Z,76.62
2022-12-03T13:52:40.596Z,77.04
2022-12-03T13:57:42.922Z,77.07
2022-12-03T14:02:45.393Z,76.85
2022-12-03T14:07:47.767Z,77.29
2022-12-03T14:12:50.311Z,77.40
2022-12-03T14:17:52.957Z,77.28
2022-12-03T14:22:59.216Z,77.50
2022-12-03T14:28:03.962Z,77.37
2022-12-03T14:33:06.324Z,77.76
2022-12-03T14:38:08.556Z,77.84
2022-12-03T14:43:10.944Z,77.82
2022-12-03T14:48:13.180Z,77.51
2022-12-03T14:53:15.515Z,77.99
2022-12-03T14:58:17.756Z,78.09
2022-12-03T15:03:20.026Z,77.97
2022-12-03T15:08:22.448Z,78.06
2022-12-03T15:13:24.673Z,78.34
2022-12-03T15:18:26.860Z,78.25
2022-12-03T15:23:29.156Z,78.08
2022-12-03T15:28:31.341Z,78.11
2022-12-03T15:33:33.653Z,78.30
2022-12-03T15:38:35.897Z,78.39
2022-12-03T15:43:38.099Z,78.79
2022-12-03T15:48:40.361Z,79.01
2022-12-03T15:53:42.736Z,78.61
2022-12-03T15:58:44.984Z,78.68
2022-12-03T16:03:47.465Z,78.45
2022-12-03T16:08:49.601Z,78.76
2022-12-03T16:13:51.888Z,78.68
2022-12-03T16:18:54.103Z,78.91
2022-12-03T16:23:56.391Z,78.73
2022-12-03T16:28:59.474Z,78.71
2022-12-03T16:34:01.736Z,78.80
2022-12-03T16:39:04.913Z,78.94
2022-12-03T16:44:07.325Z,78.81
2022-12-03T16:49:09.648Z,79.16
2022-12-03T16:54:12.074Z,78.94
2022-12-03T16:59:15.370Z,78.87
2022-12-03T17:04:17.795Z,78.77
2022-12-03T17:09:20.579Z,78.72
2022-12-03T17:14:22.803Z,79.01
2022-12-03T17:19:25.170Z,79.03
2022-12-03T17:24:27.383Z,79.27
2022-12-03T17:29:29.558Z,79.12
2022-12-03T17:34:31.926Z,79.17
2022-12-03T17:39:34.133Z,78.83
2022-12-03T17:44:36.392Z,78.70
2022-12-03T17:49:38.673Z,78.86
2022-12-03T17:55:08.400Z,78.65
2022-12-03T18:00:03.421Z,78.77
2022-12-03T18:05:14.579Z,78.85
2022-12-03T18:10:17.181Z,78.64
2022-12-03T18:15:19.452Z,78.57
2022-12-03T18:20:21.800Z,78.56
2022-12-03T18:25:24.067Z,78.04
2022-12-03T18:30:26.579Z,78.03
2022-12-03T18:35:29.108Z,77.90
2022-12-03T18:40:31.411Z,77.64
2022-12-03T18:45:33.736Z,77.74
2022-12-03T18:50:35.979Z,77.69
2022-12-03T18:55:39.051Z,77.35
2022-12-03T19:00:41.394Z,77.37
2022-12-03T19:05:43.790Z,77.36
2022-12-03T19:10:47.395Z,77.09
2022-12-03T19:15:50.691Z,76.85
2022-12-03T19:20:53.178Z,77.15
2022-12-03T19:26:07.622Z,76.84
2022-12-03T19:31:15.436Z,76.68
2022-12-03T19:36:29.588Z,76.75
2022-12-03T19:41:31.929Z,76.75
2022-12-03T19:46:34.159Z,76.66
2022-12-03T19:51:38.337Z,76.31
2022-12-03T19:56:40.677Z,76.79
2022-12-03T20:01:43.685Z,76.23
2022-12-03T20:06:45.978Z,76.62
2022-12-03T20:11:51.058Z,76.76
2022-12-03T20:16:53.471Z,76.50
2022-12-03T20:22:02.153Z,76.46
2022-12-03T20:27:05.000Z,76.59
2022-12-03T20:32:07.354Z,76.81
2022-12-03T20:37:09.640Z,76.62
2022-12-03T20:42:12.061Z,76.82
2022-12-03T20:47:16.054Z,76.89
2022-12-03T20:52:18.276Z,76.88
2022-12-03T20:57:20.522Z,76.76
2022-12-03T21:02:23.001Z,76.82
2022-12-03T21:07:25.441Z,76.81
2022-12-03T21:12:27.986Z,76.80
2022-12-03T21:17:30.360Z,77.04
2022-12-03T21:22:32.511Z,76.88
2022-12-03T21:27:34.760Z,76.81
2022-12-03T21:32:37.098Z,76.65
2022-12-03T21:37:39.330Z,76.71
2022-12-03T21:42:41.942Z,76.28
2022-12-03T21:47:47.542Z,76.13
2022-12-03T21:52:51.527Z,76.21
2022-12-03T21:57:53.720Z,76.81
2022-12-03T22:02:55.990Z,76.62
2022-12-03T22:07:58.391Z,76.66
2022-12-03T22:13:00.580Z,76.64
2022-12-03T22:18:02.870Z,76.43
2022-12-03T22:23:05.088Z,76.66
2022-12-03T22:28:07.332Z,76.72
2022-12-03T22:33:09.563Z,76.67
2022-12-03T22:38:14.001Z,76.50
2022-12-03T22:43:16.498Z,76.56
2022-12-03T22:48:18.773Z,76.59
2022-12-03T22:53:21.524Z,76.46
2022-12-03T22:58:24.566Z,76.45
2022-12-03T23:03:26.887Z,76.06
2022-12-03T23:08:29.306Z,76.31
2022-12-03T23:13:31.600Z,76.44
2022-12-03T23:18:33.824Z,76.02
2022-12-03T23:23:36.111Z,75.92
2022-12-03T23:28:41.245Z,75.63
2022-12-03T23:33:43.536Z,75.98
2022-12-03T23:38:45.929Z,75.90
2022-12-03T23:43:51.278Z,75.96
2022-12-03T23:48:53.557Z,75.82
2022-12-03T23:53:56.455Z,75.83
2022-12-03T23:58:58.856Z,75.84
